Time;durP1;ratioP1;P1;durP2;ratioP2;P2;SDS_P1;SDS_P2;PMS_P1;PMS_P2;Temp;Humidity;BMP_temperature;BMP_pressure;BME280_temperature;BME280_humidity;BME280_pressure;Samples;Min_cycle;Max_cycle;Signal;HPM_P1;HPM_P2
2022/01/05 00:01:10;;;;;;;187.40;29.80;;;8.40;96.30;;;;;;5034511;28;20206;-69
2022/01/05 00:03:37;;;;;;;167.23;27.27;;;8.40;96.30;;;;;;5020642;28;20206;-69
2022/01/05 00:06:04;;;;;;;89.23;25.07;;;8.40;96.30;;;;;;5022067;28;20706;-69
2022/01/05 00:08:31;;;;;;;166.30;26.73;;;8.40;96.30;;;;;;5040067;28;20294;-69
2022/01/05 00:10:59;;;;;;;170.53;27.53;;;8.40;96.30;;;;;;5041305;28;20241;-69
2022/01/05 00:13:26;;;;;;;107.17;27.07;;;8.40;96.30;;;;;;5041128;28;20643;-69
2022/01/05 00:15:53;;;;;;;402.57;33.40;;;8.40;96.30;;;;;;5040234;28;20206;-69
2022/01/05 00:18:20;;;;;;;114.30;27.27;;;8.40;96.40;;;;;;5037941;28;20314;-69
2022/01/05 00:20:47;;;;;;;213.97;32.63;;;8.40;96.30;;;;;;5039629;28;20210;-69
2022/01/05 00:23:14;;;;;;;135.30;28.10;;;8.40;96.60;;;;;;5039421;28;20632;-69
2022/01/05 00:25:41;;;;;;;173.27;27.80;;;8.40;96.40;;;;;;5038495;28;20238;-68
2022/01/05 00:28:08;;;;;;;326.67;35.40;;;8.40;96.30;;;;;;5018197;28;20647;-69
2022/01/05 00:30:35;;;;;;;379.50;35.30;;;8.40;96.40;;;;;;5037666;28;20213;-69
2022/01/05 00:33:03;;;;;;;144.87;30.33;;;8.40;96.30;;;;;;5032774;28;20208;-69
2022/01/05 00:35:30;;;;;;;162.20;30.70;;;8.40;96.30;;;;;;5037841;28;20218;-69
2022/01/05 00:37:57;;;;;;;209.50;31.73;;;8.40;96.40;;;;;;5021460;28;20223;-69
2022/01/05 00:40:24;;;;;;;160.63;27.93;;;8.30;96.30;;;;;;5040440;28;20664;-70
2022/01/05 00:42:51;;;;;;;110.33;27.60;;;8.40;96.40;;;;;;5040937;28;20297;-69
2022/01/05 00:45:18;;;;;;;196.90;31.00;;;8.40;96.40;;;;;;5024669;28;20209;-70
2022/01/05 00:47:46;;;;;;;159.30;28.23;;;8.40;96.40;;;;;;5025357;28;20649;-69
2022/01/05 00:50:13;;;;;;;127.90;28.77;;;8.40;96.40;;;;;;5016226;28;20297;-70
2022/01/05 00:52:40;;;;;;;132.07;25.90;;;8.40;96.40;;;;;;5026444;28;20635;-69
2022/01/05 00:55:07;;;;;;;257.07;30.27;;;8.40;96.50;;;;;;5023556;28;20247;-69
2022/01/05 00:57:34;;;;;;;140.40;29.33;;;8.40;96.50;;;;;;5021959;28;20272;-69
2022/01/05 01:00:04;;;;;;;144.23;29.30;;;8.40;96.40;;;;;;5008033;28;20223;-69
2022/01/05 01:02:31;;;;;;;228.87;33.43;;;8.40;96.50;;;;;;5020810;28;20209;-69
2022/01/05 01:04:58;;;;;;;237.77;35.37;;;8.40;96.40;;;;;;5039875;28;20268;-69
2022/01/05 01:07:25;;;;;;;215.33;33.60;;;8.40;96.40;;;;;;5020023;28;20222;-69
2022/01/05 01:09:52;;;;;;;439.97;39.23;;;8.40;96.40;;;;;;5037241;28;20553;-70
2022/01/05 01:12:19;;;;;;;417.93;41.40;;;8.40;96.40;;;;;;5017955;28;20601;-69
2022/01/05 01:14:46;;;;;;;221.07;38.83;;;8.40;96.40;;;;;;5036693;28;20218;-69
2022/01/05 01:17:13;;;;;;;184.40;37.13;;;8.40;96.40;;;;;;5036300;28;20232;-69
2022/01/05 01:19:40;;;;;;;301.60;43.00;;;8.40;96.50;;;;;;5036590;28;20210;-69
2022/01/05 01:22:08;;;;;;;289.13;39.37;;;8.40;96.50;;;;;;5038623;28;20204;-69
2022/01/05 01:24:35;;;;;;;255.37;39.33;;;8.40;96.50;;;;;;5038823;28;20297;-69
2022/01/05 01:27:02;;;;;;;291.60;40.17;;;8.40;96.50;;;;;;5022971;28;20233;-69
2022/01/05 01:29:29;;;;;;;300.90;40.53;;;8.40;96.50;;;;;;5024309;28;20553;-69
2022/01/05 01:31:57;;;;;;;316.83;41.10;;;8.40;96.60;;;;;;5022427;28;20218;-69
2022/01/05 01:34:24;;;;;;;299.23;41.03;;;8.40;96.60;;;;;;5036575;28;20225;-70
2022/01/05 01:36:51;;;;;;;350.83;42.10;;;8.40;96.60;;;;;;5009265;28;20231;-69
2022/01/05 01:39:18;;;;;;;317.20;42.63;;;8.40;96.60;;;;;;5038238;28;20206;-69
2022/01/05 01:41:45;;;;;;;204.43;38.37;;;8.30;96.60;;;;;;5036874;28;20523;-69
2022/01/05 01:44:12;;;;;;;305.43;41.27;;;8.30;96.60;;;;;;5032670;28;20211;-70
2022/01/05 01:46:39;;;;;;;288.03;39.30;;;8.30;96.70;;;;;;5036358;28;20564;-70
2022/01/05 01:49:06;;;;;;;440.23;46.13;;;8.30;96.80;;;;;;5037461;28;20196;-69
2022/01/05 01:51:34;;;;;;;345.83;42.60;;;8.30;96.80;;;;;;5037405;28;20542;-69
2022/01/05 01:54:03;;;;;;;287.70;40.57;;;8.40;96.80;;;;;;5027672;28;20671;-69
2022/01/05 01:56:33;;;;;;;245.00;42.43;;;8.30;96.80;;;;;;5037825;28;20210;-69
2022/01/05 01:59:04;;;;;;;218.87;39.47;;;8.30;96.80;;;;;;5036083;28;20236;-69
2022/01/05 02:01:31;;;;;;;338.10;44.30;;;8.40;96.90;;;;;;5034771;28;20206;-69
2022/01/05 02:03:58;;;;;;;285.80;41.97;;;8.40;96.90;;;;;;5036787;28;20199;-69
2022/01/05 02:06:25;;;;;;;287.23;40.93;;;8.40;96.90;;;;;;5018860;28;20210;-69
2022/01/05 02:08:53;;;;;;;315.07;43.83;;;8.40;96.90;;;;;;5020267;28;20218;-69
2022/01/05 02:11:20;;;;;;;550.10;51.87;;;8.40;96.90;;;;;;5037842;28;20254;-70
2022/01/05 02:13:47;;;;;;;423.77;45.00;;;8.40;96.90;;;;;;5022796;28;20217;-69
2022/01/05 02:16:20;;;;;;;330.37;45.67;;;8.40;96.80;;;;;;5020917;28;20650;-69
2022/01/05 02:18:59;;;;;;;381.23;47.80;;;8.40;96.80;;;;;;5016997;28;20224;-70
2022/01/05 02:21:37;;;;;;;644.47;54.93;;;8.50;96.90;;;;;;5023780;28;20214;-69
2022/01/05 02:24:07;;;;;;;322.20;46.43;;;8.40;96.80;;;;;;5038150;28;20209;-70
2022/01/05 02:26:36;;;;;;;291.60;44.47;;;8.50;96.80;;;;;;5040064;28;20286;-69
2022/01/05 02:29:04;;;;;;;400.57;47.00;;;8.50;96.80;;;;;;5040030;28;20212;-69
2022/01/05 02:31:31;;;;;;;560.53;53.53;;;8.50;96.80;;;;;;5037762;28;20211;-69
2022/01/05 02:34:00;;;;;;;385.27;55.77;;;8.50;96.80;;;;;;5029086;28;20662;-69
2022/01/05 02:36:27;;;;;;;423.67;57.33;;;8.40;96.80;;;;;;5028574;28;20279;-70
2022/01/05 02:38:55;;;;;;;445.93;64.67;;;8.50;96.80;;;;;;5005463;28;20535;-69
2022/01/05 02:41:22;;;;;;;348.43;61.60;;;8.50;96.80;;;;;;5021836;28;20209;-69
2022/01/05 02:43:50;;;;;;;462.30;64.10;;;8.50;96.80;;;;;;5039337;28;20238;-69
2022/01/05 02:46:19;;;;;;;503.07;61.10;;;8.50;96.80;;;;;;5036575;28;20249;-69
2022/01/05 02:48:52;;;;;;;357.57;57.73;;;8.50;96.80;;;;;;5038829;28;20210;-69
2022/01/05 02:51:20;;;;;;;390.70;60.37;;;8.50;96.80;;;;;;5022489;28;20218;-69
2022/01/05 02:53:47;;;;;;;325.50;53.30;;;8.50;96.80;;;;;;5037677;28;20202;-69
2022/01/05 02:56:14;;;;;;;429.57;61.10;;;8.50;96.90;;;;;;5018081;28;20199;-69
2022/01/05 02:58:42;;;;;;;433.27;62.30;;;8.50;96.90;;;;;;5041459;28;20237;-69
2022/01/05 03:01:09;;;;;;;651.30;71.70;;;8.50;96.80;;;;;;5044026;28;20305;-69
2022/01/05 03:03:36;;;;;;;430.47;65.47;;;8.50;96.80;;;;;;5025036;28;20210;-69
2022/01/05 03:06:03;;;;;;;445.60;65.27;;;8.50;96.80;;;;;;5022820;28;20217;-70
2022/01/05 03:08:30;;;;;;;381.80;59.93;;;8.50;96.80;;;;;;5039565;28;20207;-69
2022/01/05 03:10:58;;;;;;;387.17;58.80;;;8.50;96.80;;;;;;5019131;28;20242;-70
2022/01/05 03:13:25;;;;;;;411.83;65.13;;;8.40;96.80;;;;;;5000813;28;20220;-69
2022/01/05 03:15:54;;;;;;;388.80;59.17;;;8.40;96.90;;;;;;5020859;28;20217;-70
2022/01/05 03:18:21;;;;;;;409.47;60.30;;;8.40;96.90;;;;;;5036158;28;20289;-69
2022/01/05 03:20:49;;;;;;;319.93;55.73;;;8.40;96.90;;;;;;5019338;28;20198;-69
2022/01/05 03:23:16;;;;;;;366.20;59.50;;;8.30;96.90;;;;;;5035724;28;20207;-69
2022/01/05 03:25:43;;;;;;;298.80;53.43;;;8.30;96.90;;;;;;5017832;28;20225;-69
2022/01/05 03:28:10;;;;;;;261.63;53.50;;;8.30;97.00;;;;;;5032922;28;20214;-69
2022/01/05 03:30:39;;;;;;;224.40;48.27;;;8.30;97.00;;;;;;5034539;28;20203;-69
2022/01/05 03:33:11;;;;;;;334.40;52.80;;;8.20;96.90;;;;;;5035390;28;20211;-69
2022/01/05 03:35:45;;;;;;;263.57;47.53;;;8.20;96.90;;;;;;5014164;28;20210;-69
2022/01/05 03:38:15;;;;;;;185.40;46.60;;;8.20;97.00;;;;;;5009381;28;20241;-69
2022/01/05 03:40:44;;;;;;;373.73;53.83;;;8.10;97.00;;;;;;5017217;28;20264;-70
2022/01/05 03:43:12;;;;;;;223.63;46.43;;;8.10;97.10;;;;;;5027391;28;20202;-69
2022/01/05 03:45:40;;;;;;;246.20;45.73;;;8.10;97.10;;;;;;5036179;28;20206;-70
2022/01/05 03:48:09;;;;;;;163.37;42.37;;;8.00;97.30;;;;;;5054814;28;20239;-70
2022/01/05 03:50:38;;;;;;;183.03;42.17;;;8.00;97.10;;;;;;5057384;28;20207;-69
2022/01/05 03:53:06;;;;;;;178.50;43.07;;;8.00;97.10;;;;;;5056387;28;20200;-69
2022/01/05 03:55:35;;;;;;;126.20;39.57;;;8.00;97.10;;;;;;5037184;28;20244;-69
2022/01/05 03:58:02;;;;;;;184.03;42.40;;;7.90;97.00;;;;;;5037955;28;20244;-69
2022/01/05 04:00:31;;;;;;;198.43;42.27;;;7.90;97.00;;;;;;5054776;28;20217;-69
2022/01/05 04:02:59;;;;;;;289.60;45.90;;;7.90;97.00;;;;;;5053617;28;20318;-69
2022/01/05 04:05:28;;;;;;;168.73;42.20;;;7.90;97.00;;;;;;5038781;28;20595;-70
2022/01/05 04:07:56;;;;;;;133.23;39.37;;;7.80;97.10;;;;;;5038414;28;20637;-69
2022/01/05 04:10:23;;;;;;;188.10;40.00;;;7.80;97.10;;;;;;5023168;28;20217;-69
2022/01/05 04:12:51;;;;;;;115.33;37.17;;;7.80;97.20;;;;;;5038066;28;20544;-69
2022/01/05 04:15:18;;;;;;;121.80;36.03;;;7.80;97.20;;;;;;5021028;28;20221;-69
2022/01/05 04:17:46;;;;;;;154.07;38.47;;;7.80;97.40;;;;;;5037080;28;20239;-69
2022/01/05 04:20:14;;;;;;;102.43;38.67;;;7.80;97.10;;;;;;5037242;28;20584;-69
2022/01/05 04:22:42;;;;;;;147.03;37.73;;;7.90;97.10;;;;;;5055960;28;20217;-70
2022/01/05 04:25:10;;;;;;;136.47;39.33;;;7.90;97.10;;;;;;5054643;28;20216;-70
2022/01/05 04:27:37;;;;;;;146.57;39.20;;;7.90;97.40;;;;;;5036302;28;20560;-69
2022/01/05 04:30:06;;;;;;;192.87;42.07;;;7.90;97.10;;;;;;5052217;28;20210;-69
2022/01/05 04:32:34;;;;;;;164.40;39.70;;;7.90;97.00;;;;;;5054181;28;20226;-69
2022/01/05 04:35:21;;;;;;;193.43;37.30;;;7.90;97.00;;;;;;5054416;28;20208;-69
2022/01/05 04:37:54;;;;;;;201.77;39.33;;;7.90;96.80;;;;;;5033213;28;20610;-70
2022/01/05 04:40:21;;;;;;;162.90;39.13;;;7.80;96.80;;;;;;5053431;28;20201;-70
2022/01/05 04:42:48;;;;;;;285.70;40.67;;;7.80;96.90;;;;;;5042339;28;20196;-69
2022/01/05 04:45:15;;;;;;;118.10;35.10;;;7.80;96.90;;;;;;5059900;28;20544;-70
2022/01/05 04:47:42;;;;;;;154.60;36.67;;;7.70;96.80;;;;;;5037618;28;20705;-69
2022/01/05 04:50:14;;;;;;;138.53;36.33;;;7.70;96.90;;;;;;5049175;28;20223;-69
2022/01/05 04:52:41;;;;;;;227.57;40.30;;;7.70;96.90;;;;;;5056725;28;20219;-69
2022/01/05 04:55:09;;;;;;;114.87;37.33;;;7.70;97.00;;;;;;5059628;28;20252;-69
2022/01/05 04:57:36;;;;;;;105.60;35.63;;;7.70;97.00;;;;;;5061718;28;20198;-69
2022/01/05 05:00:04;;;;;;;148.43;37.83;;;7.70;97.00;;;;;;5041366;28;20223;-69
2022/01/05 05:02:31;;;;;;;158.80;39.00;;;7.70;97.30;;;;;;5059504;28;20537;-69
2022/01/05 05:04:58;;;;;;;174.13;38.57;;;7.70;97.00;;;;;;5040404;28;20216;-69
2022/01/05 05:07:26;;;;;;;102.77;35.33;;;7.70;97.00;;;;;;5057536;28;20237;-69
2022/01/05 05:09:52;;;;;;;115.97;34.60;;;7.60;96.90;;;;;;5058217;28;20208;-69
2022/01/05 05:12:19;;;;;;;231.03;38.27;;;7.60;97.00;;;;;;5039814;28;20301;-69
2022/01/05 05:14:46;;;;;;;137.07;35.13;;;7.60;97.00;;;;;;5057397;28;20205;-70
2022/01/05 05:17:14;;;;;;;99.87;32.87;;;7.60;97.00;;;;;;5053371;28;20209;-70
2022/01/05 05:19:41;;;;;;;419.20;42.50;;;7.60;96.90;;;;;;5042749;28;20669;-69
2022/01/05 05:22:08;;;;;;;120.70;35.63;;;7.60;96.90;;;;;;5042072;28;20220;-70
2022/01/05 05:24:35;;;;;;;140.20;36.70;;;7.60;96.90;;;;;;5061149;28;20618;-70
2022/01/05 05:27:03;;;;;;;114.83;35.73;;;7.60;97.20;;;;;;5059048;28;20288;-70
2022/01/05 05:29:30;;;;;;;154.47;35.20;;;7.60;97.00;;;;;;5058008;28;20200;-69
2022/01/05 05:31:57;;;;;;;129.23;36.20;;;7.60;97.00;;;;;;5043013;28;20536;-69
2022/01/05 05:34:25;;;;;;;212.97;36.50;;;7.60;97.10;;;;;;5042269;28;20221;-70
2022/01/05 05:36:52;;;;;;;262.80;40.90;;;7.60;97.00;;;;;;5057711;28;20214;-69
2022/01/05 05:39:19;;;;;;;110.00;35.57;;;7.60;97.00;;;;;;5056563;28;20312;-69
2022/01/05 05:41:46;;;;;;;319.87;40.37;;;7.60;96.90;;;;;;5055371;28;20291;-69
2022/01/05 05:44:13;;;;;;;244.57;41.23;;;7.60;97.00;;;;;;5055851;28;20212;-69
2022/01/05 05:46:40;;;;;;;222.30;40.13;;;7.50;96.90;;;;;;5038904;28;20208;-69
2022/01/05 05:49:07;;;;;;;203.40;38.23;;;7.50;96.90;;;;;;5037487;28;20257;-69
2022/01/05 05:51:34;;;;;;;158.50;38.50;;;7.50;97.30;;;;;;5059635;28;20251;-69
2022/01/05 05:54:03;;;;;;;150.17;37.57;;;7.50;97.10;;;;;;5040785;28;20254;-69
2022/01/05 05:56:30;;;;;;;164.23;36.83;;;7.50;97.20;;;;;;5057575;28;20204;-69
2022/01/05 05:58:57;;;;;;;101.53;35.37;;;7.50;97.20;;;;;;5056550;28;20220;-69
2022/01/05 06:01:24;;;;;;;313.43;45.20;;;7.50;97.20;;;;;;5056372;28;20205;-69
2022/01/05 06:03:52;;;;;;;351.30;46.87;;;7.50;97.30;;;;;;5039046;28;20201;-69
2022/01/05 06:06:19;;;;;;;404.30;47.33;;;7.60;97.20;;;;;;5056525;28;20605;-70
2022/01/05 06:08:46;;;;;;;479.97;55.57;;;7.60;97.20;;;;;;5060158;28;20223;-69
2022/01/05 06:11:13;;;;;;;185.50;39.97;;;7.50;97.10;;;;;;5039518;28;20288;-69
2022/01/05 06:13:40;;;;;;;228.83;43.87;;;7.60;97.20;;;;;;5059284;28;20210;-69
2022/01/05 06:16:07;;;;;;;126.67;41.27;;;7.60;97.30;;;;;;5056405;28;20227;-69
2022/01/05 06:18:34;;;;;;;102.30;39.37;;;7.60;97.40;;;;;;5056744;28;20226;-69
2022/01/05 06:21:01;;;;;;;99.13;40.03;;;7.60;97.50;;;;;;5055545;28;20633;-69
2022/01/05 06:23:29;;;;;;;104.43;38.47;;;7.60;97.50;;;;;;5055728;28;20205;-69
2022/01/05 06:25:56;;;;;;;233.50;40.83;;;7.70;97.60;;;;;;5040320;28;20205;-69
2022/01/05 06:28:23;;;;;;;95.47;37.83;;;7.70;97.60;;;;;;5040598;28;20202;-69
2022/01/05 06:30:50;;;;;;;106.53;36.20;;;7.70;97.60;;;;;;5057892;28;20202;-69
2022/01/05 06:33:17;;;;;;;112.53;35.50;;;7.80;97.60;;;;;;5059355;28;20660;-69
2022/01/05 06:35:44;;;;;;;129.57;37.43;;;7.80;97.50;;;;;;5040142;28;20220;-69
2022/01/05 06:38:12;;;;;;;103.47;34.43;;;7.80;97.40;;;;;;5055993;28;20218;-69
2022/01/05 06:40:39;;;;;;;124.93;35.03;;;7.80;97.40;;;;;;5057302;28;20641;-69
2022/01/05 06:43:06;;;;;;;104.67;36.53;;;7.80;97.30;;;;;;5037341;28;20240;-69
2022/01/05 06:45:34;;;;;;;94.17;35.67;;;7.90;97.30;;;;;;5038350;28;20193;-70
2022/01/05 06:48:01;;;;;;;569.33;51.13;;;7.90;97.30;;;;;;5036611;28;20268;-69
2022/01/05 06:50:28;;;;;;;201.53;38.40;;;7.90;97.30;;;;;;5055393;28;20206;-69
2022/01/05 06:52:55;;;;;;;84.73;35.00;;;7.90;97.20;;;;;;5054853;28;20199;-69
2022/01/05 06:55:23;;;;;;;81.13;32.50;;;7.90;97.10;;;;;;5051643;28;20252;-69
2022/01/05 06:57:51;;;;;;;97.63;36.43;;;7.90;97.00;;;;;;5037647;28;20205;-69
2022/01/05 07:00:20;;;;;;;76.80;33.20;;;7.90;96.90;;;;;;5062734;28;20237;-70
2022/01/05 07:02:47;;;;;;;97.33;34.43;;;7.90;96.90;;;;;;5040715;28;20214;-69
2022/01/05 07:05:14;;;;;;;77.50;33.43;;;7.80;96.80;;;;;;5060843;28;20293;-70
2022/01/05 07:07:42;;;;;;;324.20;41.87;;;7.80;96.80;;;;;;5040002;28;20691;-69
2022/01/05 07:10:10;;;;;;;73.93;32.27;;;7.80;96.80;;;;;;5059932;28;20218;-69
2022/01/05 07:12:38;;;;;;;81.13;34.10;;;7.80;96.70;;;;;;5041673;28;20232;-69
2022/01/05 07:15:06;;;;;;;71.57;32.63;;;7.80;96.80;;;;;;5039195;28;20232;-69
2022/01/05 07:17:34;;;;;;;72.57;33.67;;;7.80;96.70;;;;;;5040543;28;20290;-69
2022/01/05 07:20:02;;;;;;;68.60;34.40;;;7.80;96.80;;;;;;5038324;28;20233;-69
2022/01/05 07:22:29;;;;;;;76.53;32.83;;;7.80;96.80;;;;;;5054533;28;20194;-69
2022/01/05 07:24:59;;;;;;;77.60;32.33;;;7.90;96.80;;;;;;5055735;28;20216;-70
2022/01/05 07:27:26;;;;;;;69.67;31.70;;;7.90;96.80;;;;;;5054785;28;20218;-69
2022/01/05 07:29:53;;;;;;;66.27;32.17;;;8.00;96.80;;;;;;5019074;28;20229;-69
2022/01/05 07:32:20;;;;;;;66.37;31.77;;;8.00;96.80;;;;;;5033274;28;20241;-69
2022/01/05 07:34:47;;;;;;;68.33;32.03;;;8.00;96.80;;;;;;5055313;28;20202;-69
2022/01/05 07:37:15;;;;;;;59.80;30.50;;;8.10;96.80;;;;;;5051721;28;20221;-69
2022/01/05 07:39:42;;;;;;;69.10;31.57;;;8.10;96.70;;;;;;5055346;28;20642;-69
2022/01/05 07:42:10;;;;;;;64.17;31.23;;;8.10;96.70;;;;;;5058909;28;20206;-69
2022/01/05 07:44:38;;;;;;;66.13;32.63;;;8.20;96.70;;;;;;5022839;28;20211;-69
2022/01/05 07:47:06;;;;;;;61.47;32.03;;;8.10;96.60;;;;;;5058595;28;20214;-69
2022/01/05 07:49:34;;;;;;;59.57;30.20;;;8.20;96.60;;;;;;5055709;28;20627;-69
2022/01/05 07:52:01;;;;;;;50.20;28.20;;;8.20;96.60;;;;;;5055961;28;20211;-69
2022/01/05 07:54:28;;;;;;;58.57;30.40;;;8.20;96.60;;;;;;5039105;28;20333;-69
2022/01/05 07:56:55;;;;;;;50.67;28.27;;;8.20;96.70;;;;;;5038906;28;20624;-69
2022/01/05 07:59:22;;;;;;;56.33;30.10;;;8.20;96.60;;;;;;5021217;28;20237;-69
2022/01/05 08:01:49;;;;;;;52.53;30.10;;;8.30;96.60;;;;;;5038097;28;20206;-69
2022/01/05 08:04:18;;;;;;;54.17;29.33;;;8.30;96.60;;;;;;5037431;28;20214;-69
2022/01/05 08:06:45;;;;;;;53.03;28.47;;;8.30;96.60;;;;;;5035860;28;20218;-69
2022/01/05 08:09:12;;;;;;;48.67;26.17;;;8.30;96.70;;;;;;5058359;28;20222;-69
2022/01/05 08:11:39;;;;;;;47.03;27.03;;;8.40;96.70;;;;;;5039954;28;20208;-69
2022/01/05 08:14:06;;;;;;;43.87;25.90;;;8.40;96.70;;;;;;5054851;28;20304;-70
2022/01/05 08:16:34;;;;;;;46.40;26.40;;;8.50;96.70;;;;;;5037052;28;20218;-70
2022/01/05 08:19:01;;;;;;;44.93;25.57;;;8.50;96.60;;;;;;5055908;28;20219;-70
2022/01/05 08:21:28;;;;;;;46.43;27.30;;;8.60;96.60;;;;;;5021013;28;20213;-70
2022/01/05 08:23:55;;;;;;;44.57;26.00;;;8.60;96.60;;;;;;5028894;28;20213;-70
2022/01/05 08:26:23;;;;;;;39.27;24.23;;;8.70;96.60;;;;;;5038507;28;20668;-69
2022/01/05 08:28:50;;;;;;;40.90;24.90;;;8.80;96.50;;;;;;5055836;28;20233;-69
2022/01/05 08:31:17;;;;;;;34.83;23.07;;;8.80;96.50;;;;;;5042315;28;20215;-69
2022/01/05 08:33:46;;;;;;;35.03;23.50;;;8.90;96.80;;;;;;5052071;28;20300;-69
2022/01/05 08:36:13;;;;;;;41.73;24.57;;;9.00;96.60;;;;;;5040962;28;20661;-69
2022/01/05 08:38:41;;;;;;;35.03;22.47;;;9.10;96.50;;;;;;5020719;28;20211;-69
2022/01/05 08:41:08;;;;;;;33.53;21.77;;;9.30;96.50;;;;;;5039832;28;20297;-69
2022/01/05 08:43:35;;;;;;;31.07;20.03;;;9.40;96.50;;;;;;5029299;28;20206;-69
2022/01/05 08:46:02;;;;;;;27.10;19.80;;;9.50;96.40;;;;;;5040802;28;20516;-70
2022/01/05 08:48:30;;;;;;;27.43;20.67;;;9.60;96.30;;;;;;5056455;28;20202;-69
2022/01/05 08:50:57;;;;;;;27.83;20.00;;;9.70;96.20;;;;;;5060227;28;20539;-69
2022/01/05 08:53:24;;;;;;;28.37;19.70;;;9.70;96.10;;;;;;5043895;28;20212;-69
2022/01/05 08:55:52;;;;;;;27.93;20.23;;;9.80;96.00;;;;;;5043189;28;20235;-69
2022/01/05 08:58:20;;;;;;;29.93;19.77;;;9.80;95.80;;;;;;5060663;28;20202;-69
2022/01/05 09:00:48;;;;;;;24.37;17.87;;;9.80;95.50;;;;;;5042285;28;20230;-69
2022/01/05 09:03:16;;;;;;;32.23;24.73;;;9.80;95.20;;;;;;5061063;28;20249;-69
2022/01/05 09:05:44;;;;;;;42.33;30.10;;;9.80;95.20;;;;;;5040867;28;20211;-69
2022/01/05 09:08:12;;;;;;;41.43;27.90;;;9.80;95.40;;;;;;5058630;28;20627;-69
2022/01/05 09:10:39;;;;;;;38.53;25.57;;;9.80;95.50;;;;;;5057946;28;20214;-69
2022/01/05 09:13:09;;;;;;;38.47;25.47;;;9.90;95.40;;;;;;5057915;28;20544;-69
2022/01/05 09:15:37;;;;;;;40.13;27.80;;;9.80;94.90;;;;;;5057026;28;20232;-69
2022/01/05 09:18:05;;;;;;;38.27;26.40;;;9.80;95.00;;;;;;5043409;28;20206;-69
2022/01/05 09:20:32;;;;;;;41.00;28.97;;;9.70;94.90;;;;;;5060051;28;20545;-70
2022/01/05 09:23:02;;;;;;;35.07;25.70;;;9.70;94.90;;;;;;5060264;28;20291;-69
2022/01/05 09:25:29;;;;;;;35.80;26.13;;;9.60;95.10;;;;;;5043094;28;20540;-69
2022/01/05 09:27:56;;;;;;;40.03;26.40;;;9.60;95.20;;;;;;5063388;28;20224;-69
2022/01/05 09:30:25;;;;;;;35.50;24.23;;;9.70;95.10;;;;;;5040203;28;20260;-69
2022/01/05 09:32:54;;;;;;;36.70;25.20;;;9.70;95.10;;;;;;5060087;28;20237;-69
2022/01/05 09:35:23;;;;;;;35.27;23.40;;;9.70;95.00;;;;;;5055771;28;20202;-69
2022/01/05 09:38:33;;;;;;;38.30;24.43;;;9.70;94.70;;;;;;5059382;28;20230;-69
2022/01/05 09:43:24;;;;;;;41.23;25.80;;;9.70;94.80;;;;;;5058124;28;20191;-69
2022/01/05 09:46:29;;;;;;;49.17;28.03;;;9.70;95.00;;;;;;5039624;28;20198;-69
2022/01/05 09:49:12;;;;;;;49.93;28.93;;;9.70;95.10;;;;;;5020919;28;20293;-69
2022/01/05 09:51:42;;;;;;;53.23;28.53;;;9.70;95.20;;;;;;5031812;28;20210;-69
2022/01/05 09:54:14;;;;;;;60.20;30.13;;;9.70;95.30;;;;;;5040404;28;20332;-69
2022/01/05 09:57:02;;;;;;;52.10;30.57;;;9.80;95.50;;;;;;5056768;28;20213;-69
2022/01/05 09:59:33;;;;;;;55.53;31.27;;;9.90;95.60;;;;;;5056707;28;20552;-69
2022/01/05 10:02:01;;;;;;;60.20;32.10;;;10.00;95.70;;;;;;5052847;28;20209;-69
2022/01/05 10:04:29;;;;;;;52.97;29.33;;;10.10;95.60;;;;;;5038393;28;20210;-69
2022/01/05 10:06:57;;;;;;;57.00;30.70;;;10.20;95.50;;;;;;5059346;28;20202;-69
2022/01/05 10:09:24;;;;;;;53.57;27.43;;;10.30;95.50;;;;;;5042100;28;20218;-69
2022/01/05 10:11:51;;;;;;;54.43;29.43;;;10.40;95.40;;;;;;5041259;28;20213;-69
2022/01/05 10:14:18;;;;;;;53.90;29.03;;;10.40;95.30;;;;;;5059434;28;20529;-69
2022/01/05 10:17:04;;;;;;;57.47;28.67;;;10.50;95.30;;;;;;5057233;28;20213;-69
2022/01/05 10:19:33;;;;;;;53.70;29.33;;;10.60;95.10;;;;;;5055419;28;20219;-69
2022/01/05 10:22:01;;;;;;;49.50;27.47;;;10.70;95.10;;;;;;5045536;28;20263;-69
2022/01/05 10:24:49;;;;;;;51.27;28.97;;;10.80;95.00;;;;;;5055910;28;20300;-70
2022/01/05 10:27:18;;;;;;;54.97;28.37;;;10.80;94.80;;;;;;5057511;28;20213;-69
2022/01/05 10:29:59;;;;;;;46.73;27.17;;;10.90;94.70;;;;;;5039981;28;20223;-69
2022/01/05 10:32:33;;;;;;;54.20;30.60;;;11.00;94.70;;;;;;5039061;28;20227;-69
2022/01/05 10:35:02;;;;;;;51.23;27.37;;;11.10;94.70;;;;;;5057048;28;20291;-69
2022/01/05 10:37:29;;;;;;;42.77;25.70;;;11.20;94.70;;;;;;5057364;28;20308;-69
2022/01/05 10:40:23;;;;;;;46.03;27.60;;;11.30;94.70;;;;;;5037344;28;20234;-69
2022/01/05 10:42:55;;;;;;;54.23;29.20;;;11.50;94.60;;;;;;5052184;28;20295;-70
2022/01/05 10:45:25;;;;;;;61.13;40.43;;;11.50;94.40;;;;;;5035027;28;20216;-69
2022/01/05 10:48:06;;;;;;;60.20;35.50;;;11.70;94.40;;;;;;5046684;28;20596;-69
2022/01/05 10:50:33;;;;;;;62.37;36.93;;;11.90;94.40;;;;;;5053516;28;20207;-69
2022/01/05 10:53:01;;;;;;;58.50;36.73;;;12.10;94.40;;;;;;5055225;28;20198;-69
2022/01/05 10:55:30;;;;;;;56.80;32.17;;;12.20;94.20;;;;;;5045191;28;20247;-69
2022/01/05 10:58:10;;;;;;;58.20;33.97;;;12.30;93.90;;;;;;5054953;28;20208;-69
2022/01/05 11:00:40;;;;;;;60.03;29.87;;;12.40;93.90;;;;;;5053179;28;20617;-69
2022/01/05 11:03:19;;;;;;;58.30;30.20;;;12.50;93.20;;;;;;5037342;28;20213;-69
2022/01/05 11:06:11;;;;;;;52.10;28.80;;;12.40;93.10;;;;;;5039472;28;20227;-69
2022/01/05 11:08:55;;;;;;;54.70;28.73;;;12.40;92.80;;;;;;5036569;28;20700;-69
2022/01/05 11:11:36;;;;;;;58.03;29.23;;;12.40;92.90;;;;;;5052153;28;20199;-69
2022/01/05 11:14:34;;;;;;;55.57;28.63;;;12.40;92.90;;;;;;5054131;28;20202;-69
2022/01/05 11:17:04;;;;;;;57.17;29.17;;;12.40;92.90;;;;;;5034104;28;20289;-69
2022/01/05 11:19:36;;;;;;;61.27;30.67;;;12.30;92.80;;;;;;5036266;28;20579;-69
2022/01/05 11:22:16;;;;;;;50.13;27.27;;;12.30;92.70;;;;;;5053873;28;20198;-69
2022/01/05 11:24:45;;;;;;;55.13;27.73;;;12.30;92.70;;;;;;5058245;28;20221;-70
2022/01/05 11:27:20;;;;;;;47.10;26.90;;;12.20;92.20;;;;;;5055309;28;20219;-70
2022/01/05 11:29:47;;;;;;;51.70;28.70;;;12.10;91.90;;;;;;5019442;28;20305;-69
2022/01/05 11:32:20;;;;;;;58.10;30.07;;;11.90;92.30;;;;;;5053650;28;20203;-69
2022/01/05 11:34:48;;;;;;;60.20;30.20;;;11.90;92.70;;;;;;5020606;28;20246;-69
2022/01/05 11:37:16;;;;;;;65.73;32.00;;;11.90;93.20;;;;;;5017559;28;20222;-69
2022/01/05 11:39:48;;;;;;;52.73;27.90;;;12.00;93.60;;;;;;5054190;28;20224;-70
2022/01/05 11:42:23;;;;;;;61.93;30.97;;;12.00;92.80;;;;;;5039047;28;20715;-69
2022/01/05 11:44:54;;;;;;;76.03;34.13;;;12.00;92.80;;;;;;5056681;28;20200;-70
2022/01/05 11:47:27;;;;;;;76.10;35.57;;;12.00;93.00;;;;;;5053878;28;20204;-69
2022/01/05 11:50:16;;;;;;;66.13;33.27;;;12.00;93.00;;;;;;5056125;28;20213;-69
2022/01/05 11:53:00;;;;;;;63.83;31.77;;;12.00;93.30;;;;;;5038508;28;20234;-69
2022/01/05 11:55:29;;;;;;;62.70;29.73;;;12.00;93.30;;;;;;5023503;28;20581;-69
2022/01/05 11:58:17;;;;;;;59.43;30.57;;;12.00;92.30;;;;;;5055282;28;20684;-69
2022/01/05 12:00:46;;;;;;;70.80;33.53;;;11.80;92.40;;;;;;5055580;28;20226;-69
2022/01/05 12:03:16;;;;;;;70.77;32.80;;;11.70;92.20;;;;;;5046335;28;20194;-70
2022/01/05 12:06:09;;;;;;;78.03;34.37;;;11.50;92.50;;;;;;5054311;28;20258;-70
2022/01/05 12:08:51;;;;;;;78.87;34.27;;;11.30;93.00;;;;;;5031890;28;20549;-69
2022/01/05 12:11:41;;;;;;;78.63;35.63;;;11.20;93.30;;;;;;5036713;28;20200;-69
2022/01/05 12:14:21;;;;;;;78.50;34.27;;;11.10;93.70;;;;;;5055053;28;20199;-70
2022/01/05 12:17:03;;;;;;;69.97;35.63;;;11.10;93.40;;;;;;5051591;28;20220;-69
2022/01/05 12:19:55;;;;;;;75.33;33.47;;;11.10;93.60;;;;;;5027029;28;20547;-69
2022/01/05 12:22:28;;;;;;;75.07;37.70;;;11.10;93.30;;;;;;5027303;28;20305;-69
2022/01/05 12:25:03;;;;;;;82.83;38.80;;;11.00;93.60;;;;;;5029072;28;20211;-69
2022/01/05 12:27:55;;;;;;;80.13;35.87;;;11.00;93.70;;;;;;5034568;28;20229;-70
2022/01/05 12:30:23;;;;;;;77.13;37.60;;;10.90;93.90;;;;;;5054246;28;20201;-69
2022/01/05 12:33:17;;;;;;;75.63;36.77;;;10.90;93.90;;;;;;5054513;28;20211;-70
2022/01/05 12:35:59;;;;;;;77.43;38.20;;;10.90;94.00;;;;;;5052703;28;20233;-70
2022/01/05 12:38:34;;;;;;;80.97;39.73;;;10.80;94.00;;;;;;5033673;28;20215;-69
2022/01/05 12:41:36;;;;;;;75.77;38.27;;;10.90;94.10;;;;;;5019785;28;20222;-69
2022/01/05 12:44:15;;;;;;;76.33;37.63;;;10.80;94.20;;;;;;5000880;28;20216;-70
2022/01/05 12:46:49;;;;;;;74.50;38.20;;;10.80;94.10;;;;;;5057338;28;20290;-70